sensor_id;sensor_type;location;lat;lon;timestamp;P1;durP1;ratioP1;P2;durP2;ratioP2
46845;SDS011;33947;46.804;134.252;2023-02-28T00:02:09;57.25;;;23.67;;
46845;SDS011;33947;46.804;134.252;2023-02-28T00:05:13;28.80;;;15.20;;
46845;SDS011;33947;46.804;134.252;2023-02-28T00:08:19;26.92;;;11.73;;
46845;SDS011;33947;46.804;134.252;2023-02-28T00:11:23;30.67;;;14.05;;
46845;SDS011;33947;46.804;134.252;2023-02-28T00:14:29;45.33;;;17.15;;
46845;SDS011;33947;46.804;134.252;2023-02-28T00:17:34;37.83;;;20.02;;
46845;SDS011;33947;46.804;134.252;2023-02-28T00:20:39;39.80;;;19.20;;
46845;SDS011;33947;46.804;134.252;2023-02-28T00:23:43;34.35;;;14.35;;
46845;SDS011;33947;46.804;134.252;2023-02-28T00:26:48;40.63;;;17.73;;
46845;SDS011;33947;46.804;134.252;2023-02-28T00:29:52;26.10;;;14.05;;
46845;SDS011;33947;46.804;134.252;2023-02-28T00:32:57;31.37;;;13.20;;
46845;SDS011;33947;46.804;134.252;2023-02-28T00:36:03;26.00;;;11.45;;
46845;SDS011;33947;46.804;134.252;2023-02-28T00:39:11;19.42;;;9.80;;
46845;SDS011;33947;46.804;134.252;2023-02-28T00:42:15;21.97;;;11.57;;
46845;SDS011;33947;46.804;134.252;2023-02-28T00:45:22;22.35;;;10.70;;
46845;SDS011;33947;46.804;134.252;2023-02-28T00:48:26;102.68;;;52.65;;
46845;SDS011;33947;46.804;134.252;2023-02-28T00:51:31;29.80;;;16.97;;
46845;SDS011;33947;46.804;134.252;2023-02-28T00:54:36;23.73;;;11.63;;
46845;SDS011;33947;46.804;134.252;2023-02-28T00:57:42;26.58;;;13.80;;
46845;SDS011;33947;46.804;134.252;2023-02-28T01:00:46;26.92;;;11.35;;
46845;SDS011;33947;46.804;134.252;2023-02-28T01:03:52;28.08;;;13.13;;
46845;SDS011;33947;46.804;134.252;2023-02-28T01:06:56;21.27;;;11.70;;
46845;SDS011;33947;46.804;134.252;2023-02-28T01:10:00;25.35;;;11.38;;
46845;SDS011;33947;46.804;134.252;2023-02-28T01:13:05;22.67;;;11.18;;
46845;SDS011;33947;46.804;134.252;2023-02-28T01:16:12;34.40;;;12.10;;
46845;SDS011;33947;46.804;134.252;2023-02-28T01:19:16;28.70;;;12.80;;
46845;SDS011;33947;46.804;134.252;2023-02-28T01:22:21;26.75;;;11.68;;
46845;SDS011;33947;46.804;134.252;2023-02-28T01:25:25;26.30;;;11.40;;
46845;SDS011;33947;46.804;134.252;2023-02-28T01:28:29;34.88;;;14.75;;
46845;SDS011;33947;46.804;134.252;2023-02-28T01:31:35;28.45;;;15.15;;
46845;SDS011;33947;46.804;134.252;2023-02-28T01:34:42;39.40;;;15.38;;
46845;SDS011;33947;46.804;134.252;2023-02-28T01:37:47;34.58;;;17.23;;
46845;SDS011;33947;46.804;134.252;2023-02-28T01:40:51;32.63;;;15.85;;
46845;SDS011;33947;46.804;134.252;2023-02-28T01:43:59;29.48;;;14.43;;
46845;SDS011;33947;46.804;134.252;2023-02-28T01:47:08;37.28;;;17.70;;
46845;SDS011;33947;46.804;134.252;2023-02-28T01:50:13;42.95;;;21.52;;
46845;SDS011;33947;46.804;134.252;2023-02-28T01:53:23;47.28;;;20.08;;
46845;SDS011;33947;46.804;134.252;2023-02-28T01:56:33;40.83;;;17.77;;
46845;SDS011;33947;46.804;134.252;2023-02-28T01:59:41;44.40;;;19.00;;
46845;SDS011;33947;46.804;134.252;2023-02-28T02:02:54;37.47;;;16.83;;
46845;SDS011;33947;46.804;134.252;2023-02-28T02:06:02;37.75;;;21.05;;
46845;SDS011;33947;46.804;134.252;2023-02-28T02:09:06;40.75;;;19.15;;
46845;SDS011;33947;46.804;134.252;2023-02-28T02:12:25;48.70;;;24.77;;
46845;SDS011;33947;46.804;134.252;2023-02-28T02:18:49;45.53;;;22.02;;
46845;SDS011;33947;46.804;134.252;2023-02-28T02:29:00;41.45;;;19.52;;
46845;SDS011;33947;46.804;134.252;2023-02-28T02:46:18;66.82;;;27.80;;
46845;SDS011;33947;46.804;134.252;2023-02-28T02:49:35;72.93;;;30.13;;
46845;SDS011;33947;46.804;134.252;2023-02-28T02:52:42;64.47;;;28.63;;
46845;SDS011;33947;46.804;134.252;2023-02-28T02:55:52;61.33;;;27.65;;
46845;SDS011;33947;46.804;134.252;2023-02-28T02:59:01;48.03;;;23.10;;
46845;SDS011;33947;46.804;134.252;2023-02-28T03:02:11;48.25;;;23.60;;
46845;SDS011;33947;46.804;134.252;2023-02-28T03:05:19;53.53;;;25.52;;
46845;SDS011;33947;46.804;134.252;2023-02-28T03:08:33;65.40;;;30.58;;
46845;SDS011;33947;46.804;134.252;2023-02-28T03:11:39;87.03;;;36.25;;
46845;SDS011;33947;46.804;134.252;2023-02-28T03:15:07;50.95;;;24.70;;
46845;SDS011;33947;46.804;134.252;2023-02-28T03:29:02;45.55;;;21.98;;
46845;SDS011;33947;46.804;134.252;2023-02-28T03:32:33;51.97;;;23.27;;
46845;SDS011;33947;46.804;134.252;2023-02-28T03:35:44;55.97;;;23.95;;
46845;SDS011;33947;46.804;134.252;2023-02-28T03:39:02;69.55;;;30.17;;
46845;SDS011;33947;46.804;134.252;2023-02-28T03:42:14;64.45;;;27.75;;
46845;SDS011;33947;46.804;134.252;2023-02-28T03:45:25;76.63;;;30.48;;
46845;SDS011;33947;46.804;134.252;2023-02-28T03:48:37;52.50;;;25.17;;
46845;SDS011;33947;46.804;134.252;2023-02-28T03:52:04;363.30;;;98.97;;
46845;SDS011;33947;46.804;134.252;2023-02-28T03:55:11;176.82;;;56.03;;
46845;SDS011;33947;46.804;134.252;2023-02-28T03:58:30;87.40;;;36.80;;
46845;SDS011;33947;46.804;134.252;2023-02-28T04:01:43;77.43;;;33.60;;
46845;SDS011;33947;46.804;134.252;2023-02-28T04:04:50;70.80;;;35.33;;
46845;SDS011;33947;46.804;134.252;2023-02-28T04:07:54;85.15;;;38.05;;
46845;SDS011;33947;46.804;134.252;2023-02-28T04:14:34;73.05;;;40.35;;
46845;SDS011;33947;46.804;134.252;2023-02-28T04:17:38;80.85;;;36.85;;
46845;SDS011;33947;46.804;134.252;2023-02-28T04:20:42;73.80;;;33.83;;
46845;SDS011;33947;46.804;134.252;2023-02-28T04:23:46;80.90;;;34.53;;
46845;SDS011;33947;46.804;134.252;2023-02-28T04:26:51;132.68;;;49.22;;
46845;SDS011;33947;46.804;134.252;2023-02-28T04:29:57;106.15;;;43.28;;
46845;SDS011;33947;46.804;134.252;2023-02-28T04:33:01;65.43;;;33.50;;
46845;SDS011;33947;46.804;134.252;2023-02-28T04:36:06;77.72;;;37.15;;
46845;SDS011;33947;46.804;134.252;2023-02-28T04:39:12;110.10;;;56.75;;
46845;SDS011;33947;46.804;134.252;2023-02-28T04:42:17;74.40;;;35.10;;
46845;SDS011;33947;46.804;134.252;2023-02-28T04:45:22;63.13;;;34.15;;
46845;SDS011;33947;46.804;134.252;2023-02-28T04:48:29;70.25;;;35.78;;
46845;SDS011;33947;46.804;134.252;2023-02-28T04:51:36;85.75;;;36.50;;
46845;SDS011;33947;46.804;134.252;2023-02-28T04:54:40;78.63;;;36.20;;
46845;SDS011;33947;46.804;134.252;2023-02-28T04:57:44;86.10;;;38.53;;
46845;SDS011;33947;46.804;134.252;2023-02-28T05:00:52;87.68;;;38.65;;
46845;SDS011;33947;46.804;134.252;2023-02-28T05:03:57;79.95;;;35.67;;
46845;SDS011;33947;46.804;134.252;2023-02-28T05:07:03;70.53;;;37.22;;
46845;SDS011;33947;46.804;134.252;2023-02-28T05:10:08;85.22;;;40.53;;
46845;SDS011;33947;46.804;134.252;2023-02-28T05:13:13;79.88;;;40.53;;
46845;SDS011;33947;46.804;134.252;2023-02-28T05:16:18;90.55;;;39.75;;
46845;SDS011;33947;46.804;134.252;2023-02-28T05:19:23;79.90;;;40.70;;
46845;SDS011;33947;46.804;134.252;2023-02-28T05:22:27;75.43;;;40.40;;
46845;SDS011;33947;46.804;134.252;2023-02-28T05:25:32;83.43;;;42.85;;
46845;SDS011;33947;46.804;134.252;2023-02-28T05:28:37;94.43;;;41.95;;
46845;SDS011;33947;46.804;134.252;2023-02-28T05:31:41;83.88;;;40.05;;
46845;SDS011;33947;46.804;134.252;2023-02-28T05:34:45;98.60;;;46.17;;
46845;SDS011;33947;46.804;134.252;2023-02-28T05:37:50;185.40;;;73.07;;
46845;SDS011;33947;46.804;134.252;2023-02-28T05:40:55;129.68;;;59.05;;
46845;SDS011;33947;46.804;134.252;2023-02-28T05:43:59;92.30;;;44.53;;
46845;SDS011;33947;46.804;134.252;2023-02-28T05:47:03;123.18;;;55.42;;
46845;SDS011;33947;46.804;134.252;2023-02-28T05:50:07;112.65;;;58.70;;
46845;SDS011;33947;46.804;134.252;2023-02-28T05:53:13;119.13;;;58.90;;
46845;SDS011;33947;46.804;134.252;2023-02-28T05:56:17;78.25;;;43.40;;
46845;SDS011;33947;46.804;134.252;2023-02-28T05:59:21;76.53;;;37.85;;
46845;SDS011;33947;46.804;134.252;2023-02-28T06:02:26;94.47;;;47.00;;
46845;SDS011;33947;46.804;134.252;2023-02-28T06:05:31;89.07;;;44.40;;
46845;SDS011;33947;46.804;134.252;2023-02-28T06:08:36;93.72;;;47.08;;
46845;SDS011;33947;46.804;134.252;2023-02-28T06:11:41;133.00;;;58.83;;
46845;SDS011;33947;46.804;134.252;2023-02-28T06:14:45;83.03;;;40.08;;
46845;SDS011;33947;46.804;134.252;2023-02-28T06:17:50;94.63;;;52.00;;
46845;SDS011;33947;46.804;134.252;2023-02-28T06:20:55;95.40;;;48.78;;
46845;SDS011;33947;46.804;134.252;2023-02-28T06:24:00;80.93;;;42.75;;
46845;SDS011;33947;46.804;134.252;2023-02-28T06:27:04;84.93;;;40.55;;
46845;SDS011;33947;46.804;134.252;2023-02-28T06:30:09;92.93;;;44.15;;
46845;SDS011;33947;46.804;134.252;2023-02-28T06:33:15;155.00;;;59.60;;
46845;SDS011;33947;46.804;134.252;2023-02-28T06:36:19;102.57;;;46.67;;
46845;SDS011;33947;46.804;134.252;2023-02-28T06:39:24;135.40;;;52.60;;
46845;SDS011;33947;46.804;134.252;2023-02-28T06:42:28;125.65;;;50.97;;
46845;SDS011;33947;46.804;134.252;2023-02-28T06:45:34;104.63;;;45.33;;
46845;SDS011;33947;46.804;134.252;2023-02-28T06:48:39;103.80;;;46.95;;
46845;SDS011;33947;46.804;134.252;2023-02-28T06:51:44;103.22;;;49.20;;
46845;SDS011;33947;46.804;134.252;2023-02-28T06:54:47;101.15;;;47.72;;
46845;SDS011;33947;46.804;134.252;2023-02-28T06:58:03;146.23;;;71.95;;
46845;SDS011;33947;46.804;134.252;2023-02-28T07:01:17;101.85;;;46.00;;
46845;SDS011;33947;46.804;134.252;2023-02-28T07:04:22;104.43;;;48.65;;
46845;SDS011;33947;46.804;134.252;2023-02-28T07:07:27;107.22;;;51.78;;
46845;SDS011;33947;46.804;134.252;2023-02-28T07:10:32;104.68;;;49.22;;
46845;SDS011;33947;46.804;134.252;2023-02-28T07:13:36;123.05;;;52.90;;
46845;SDS011;33947;46.804;134.252;2023-02-28T07:16:40;193.65;;;66.68;;
46845;SDS011;33947;46.804;134.252;2023-02-28T07:19:45;270.65;;;85.38;;
46845;SDS011;33947;46.804;134.252;2023-02-28T07:22:49;181.20;;;63.33;;
46845;SDS011;33947;46.804;134.252;2023-02-28T07:25:59;164.05;;;61.38;;
46845;SDS011;33947;46.804;134.252;2023-02-28T07:29:04;102.30;;;53.75;;
46845;SDS011;33947;46.804;134.252;2023-02-28T07:32:08;112.15;;;48.15;;
46845;SDS011;33947;46.804;134.252;2023-02-28T07:35:13;111.07;;;49.72;;
46845;SDS011;33947;46.804;134.252;2023-02-28T07:38:18;95.20;;;48.08;;
46845;SDS011;33947;46.804;134.252;2023-02-28T07:41:22;106.43;;;49.75;;
46845;SDS011;33947;46.804;134.252;2023-02-28T07:44:29;154.73;;;77.88;;
46845;SDS011;33947;46.804;134.252;2023-02-28T07:47:33;104.25;;;50.50;;
46845;SDS011;33947;46.804;134.252;2023-02-28T07:50:37;111.22;;;52.38;;
46845;SDS011;33947;46.804;134.252;2023-02-28T07:53:41;84.72;;;43.63;;
46845;SDS011;33947;46.804;134.252;2023-02-28T07:56:45;154.75;;;59.10;;
46845;SDS011;33947;46.804;134.252;2023-02-28T07:59:52;87.53;;;42.78;;
46845;SDS011;33947;46.804;134.252;2023-02-28T08:02:56;80.10;;;40.88;;
46845;SDS011;33947;46.804;134.252;2023-02-28T08:06:02;84.80;;;40.70;;
46845;SDS011;33947;46.804;134.252;2023-02-28T08:09:10;85.25;;;41.70;;
46845;SDS011;33947;46.804;134.252;2023-02-28T08:12:15;75.57;;;37.75;;
46845;SDS011;33947;46.804;134.252;2023-02-28T08:15:19;73.97;;;37.97;;
46845;SDS011;33947;46.804;134.252;2023-02-28T08:18:23;77.60;;;40.38;;
46845;SDS011;33947;46.804;134.252;2023-02-28T08:21:28;81.35;;;40.97;;
46845;SDS011;33947;46.804;134.252;2023-02-28T08:24:33;79.10;;;39.50;;
46845;SDS011;33947;46.804;134.252;2023-02-28T08:27:37;76.10;;;40.40;;
46845;SDS011;33947;46.804;134.252;2023-02-28T08:30:41;87.32;;;45.55;;
46845;SDS011;33947;46.804;134.252;2023-02-28T08:33:45;80.53;;;40.38;;
46845;SDS011;33947;46.804;134.252;2023-02-28T08:36:53;72.97;;;41.47;;
46845;SDS011;33947;46.804;134.252;2023-02-28T08:39:56;71.47;;;37.97;;
46845;SDS011;33947;46.804;134.252;2023-02-28T08:43:00;67.88;;;35.42;;
46845;SDS011;33947;46.804;134.252;2023-02-28T08:46:05;52.45;;;29.77;;
46845;SDS011;33947;46.804;134.252;2023-02-28T08:49:10;51.13;;;30.48;;
46845;SDS011;33947;46.804;134.252;2023-02-28T08:52:15;58.72;;;31.25;;
46845;SDS011;33947;46.804;134.252;2023-02-28T08:55:20;52.97;;;27.23;;
46845;SDS011;33947;46.804;134.252;2023-02-28T08:58:25;62.90;;;34.95;;
46845;SDS011;33947;46.804;134.252;2023-02-28T09:01:29;57.75;;;31.58;;
46845;SDS011;33947;46.804;134.252;2023-02-28T09:04:36;64.93;;;37.72;;
46845;SDS011;33947;46.804;134.252;2023-02-28T09:07:40;50.13;;;28.70;;
46845;SDS011;33947;46.804;134.252;2023-02-28T09:10:45;29.30;;;17.03;;
46845;SDS011;33947;46.804;134.252;2023-02-28T09:13:50;45.40;;;28.30;;
46845;SDS011;33947;46.804;134.252;2023-02-28T09:16:54;45.40;;;25.13;;
46845;SDS011;33947;46.804;134.252;2023-02-28T09:19:59;27.92;;;16.45;;
46845;SDS011;33947;46.804;134.252;2023-02-28T09:23:03;23.55;;;14.50;;
46845;SDS011;33947;46.804;134.252;2023-02-28T09:26:11;30.67;;;17.13;;
46845;SDS011;33947;46.804;134.252;2023-02-28T09:29:17;26.15;;;15.13;;
46845;SDS011;33947;46.804;134.252;2023-02-28T09:35:27;25.20;;;13.30;;
46845;SDS011;33947;46.804;134.252;2023-02-28T09:38:33;25.48;;;14.10;;
46845;SDS011;33947;46.804;134.252;2023-02-28T09:41:41;24.85;;;12.95;;
46845;SDS011;33947;46.804;134.252;2023-02-28T09:44:53;20.30;;;12.20;;
46845;SDS011;33947;46.804;134.252;2023-02-28T09:48:02;17.30;;;11.48;;
46845;SDS011;33947;46.804;134.252;2023-02-28T09:54:51;20.45;;;13.45;;
46845;SDS011;33947;46.804;134.252;2023-02-28T09:57:56;15.10;;;10.55;;
46845;SDS011;33947;46.804;134.252;2023-02-28T10:01:05;22.02;;;17.63;;
46845;SDS011;33947;46.804;134.252;2023-02-28T10:07:46;17.40;;;11.30;;
46845;SDS011;33947;46.804;134.252;2023-02-28T10:10:59;15.13;;;10.05;;
46845;SDS011;33947;46.804;134.252;2023-02-28T10:14:18;15.38;;;9.73;;
46845;SDS011;33947;46.804;134.252;2023-02-28T10:17:30;13.57;;;8.93;;
46845;SDS011;33947;46.804;134.252;2023-02-28T10:21:03;14.25;;;8.95;;
46845;SDS011;33947;46.804;134.252;2023-02-28T10:24:23;13.88;;;9.60;;
46845;SDS011;33947;46.804;134.252;2023-02-28T10:27:34;14.38;;;9.55;;
46845;SDS011;33947;46.804;134.252;2023-02-28T10:30:42;12.03;;;8.13;;
46845;SDS011;33947;46.804;134.252;2023-02-28T10:33:50;12.82;;;7.68;;
46845;SDS011;33947;46.804;134.252;2023-02-28T10:36:54;11.85;;;7.43;;
46845;SDS011;33947;46.804;134.252;2023-02-28T10:39:59;13.52;;;7.57;;
46845;SDS011;33947;46.804;134.252;2023-02-28T10:43:05;11.35;;;7.05;;
46845;SDS011;33947;46.804;134.252;2023-02-28T10:46:22;10.27;;;6.95;;
46845;SDS011;33947;46.804;134.252;2023-02-28T10:49:31;12.80;;;6.45;;
46845;SDS011;33947;46.804;134.252;2023-02-28T10:52:41;8.98;;;6.45;;
46845;SDS011;33947;46.804;134.252;2023-02-28T10:55:46;8.18;;;5.82;;
46845;SDS011;33947;46.804;134.252;2023-02-28T11:02:32;10.18;;;5.60;;
46845;SDS011;33947;46.804;134.252;2023-02-28T11:05:46;8.53;;;5.07;;
46845;SDS011;33947;46.804;134.252;2023-02-28T11:08:53;8.05;;;5.10;;
46845;SDS011;33947;46.804;134.252;2023-02-28T11:12:04;8.93;;;5.15;;
46845;SDS011;33947;46.804;134.252;2023-02-28T11:19:33;8.02;;;4.90;;
46845;SDS011;33947;46.804;134.252;2023-02-28T11:22:43;7.88;;;4.72;;
46845;SDS011;33947;46.804;134.252;2023-02-28T11:25:50;7.60;;;4.93;;
46845;SDS011;33947;46.804;134.252;2023-02-28T11:29:09;8.57;;;5.15;;
46845;SDS011;33947;46.804;134.252;2023-02-28T11:32:26;8.07;;;5.40;;
46845;SDS011;33947;46.804;134.252;2023-02-28T11:35:33;8.65;;;5.10;;
46845;SDS011;33947;46.804;134.252;2023-02-28T11:52:56;9.10;;;5.82;;
46845;SDS011;33947;46.804;134.252;2023-02-28T11:56:13;34.22;;;14.35;;
46845;SDS011;33947;46.804;134.252;2023-02-28T12:03:19;10.05;;;6.05;;
46845;SDS011;33947;46.804;134.252;2023-02-28T12:06:33;9.18;;;5.45;;
46845;SDS011;33947;46.804;134.252;2023-02-28T12:13:37;26.17;;;11.68;;
46845;SDS011;33947;46.804;134.252;2023-02-28T12:20:25;20.70;;;10.65;;
46845;SDS011;33947;46.804;134.252;2023-02-28T12:23:49;51.42;;;18.50;;
46845;SDS011;33947;46.804;134.252;2023-02-28T12:27:10;84.97;;;27.50;;
46845;SDS011;33947;46.804;134.252;2023-02-28T12:30:22;64.10;;;23.38;;
46845;SDS011;33947;46.804;134.252;2023-02-28T12:33:55;72.00;;;25.10;;
46845;SDS011;33947;46.804;134.252;2023-02-28T12:37:09;71.88;;;25.02;;
46845;SDS011;33947;46.804;134.252;2023-02-28T12:40:23;32.58;;;14.95;;
46845;SDS011;33947;46.804;134.252;2023-02-28T12:43:33;32.47;;;14.55;;
46845;SDS011;33947;46.804;134.252;2023-02-28T12:46:46;54.80;;;21.70;;
46845;SDS011;33947;46.804;134.252;2023-02-28T12:49:58;60.67;;;24.05;;
46845;SDS011;33947;46.804;134.252;2023-02-28T12:56:32;55.75;;;22.13;;
46845;SDS011;33947;46.804;134.252;2023-02-28T12:59:54;46.20;;;18.35;;
46845;SDS011;33947;46.804;134.252;2023-02-28T13:06:52;12.25;;;7.72;;
46845;SDS011;33947;46.804;134.252;2023-02-28T13:10:05;99.72;;;23.40;;
46845;SDS011;33947;46.804;134.252;2023-02-28T13:16:20;7.10;;;4.40;;
46845;SDS011;33947;46.804;134.252;2023-02-28T13:19:29;8.25;;;4.72;;
46845;SDS011;33947;46.804;134.252;2023-02-28T13:22:41;8.27;;;6.00;;
46845;SDS011;33947;46.804;134.252;2023-02-28T13:25:51;9.23;;;4.18;;
46845;SDS011;33947;46.804;134.252;2023-02-28T13:29:00;6.45;;;4.30;;
46845;SDS011;33947;46.804;134.252;2023-02-28T13:35:12;7.85;;;4.30;;
46845;SDS011;33947;46.804;134.252;2023-02-28T13:38:22;5.70;;;3.97;;
46845;SDS011;33947;46.804;134.252;2023-02-28T13:44:32;6.25;;;2.95;;
46845;SDS011;33947;46.804;134.252;2023-02-28T13:48:19;3.65;;;2.60;;
46845;SDS011;33947;46.804;134.252;2023-02-28T13:55:03;5.85;;;3.00;;
46845;SDS011;33947;46.804;134.252;2023-02-28T13:58:41;4.55;;;3.00;;
46845;SDS011;33947;46.804;134.252;2023-02-28T14:05:12;5.10;;;2.88;;
46845;SDS011;33947;46.804;134.252;2023-02-28T14:08:22;7.05;;;3.35;;
46845;SDS011;33947;46.804;134.252;2023-02-28T14:11:29;20.80;;;6.00;;
46845;SDS011;33947;46.804;134.252;2023-02-28T14:17:40;5.18;;;3.20;;
46845;SDS011;33947;46.804;134.252;2023-02-28T14:20:45;6.05;;;3.80;;
46845;SDS011;33947;46.804;134.252;2023-02-28T14:37:27;6.90;;;3.08;;
46845;SDS011;33947;46.804;134.252;2023-02-28T14:40:34;51.53;;;12.60;;
46845;SDS011;33947;46.804;134.252;2023-02-28T14:43:52;106.53;;;25.55;;
46845;SDS011;33947;46.804;134.252;2023-02-28T14:47:02;19.05;;;9.05;;
46845;SDS011;33947;46.804;134.252;2023-02-28T14:50:22;7.63;;;4.57;;
46845;SDS011;33947;46.804;134.252;2023-02-28T14:53:35;4.90;;;3.08;;
46845;SDS011;33947;46.804;134.252;2023-02-28T14:56:40;4.50;;;3.38;;
46845;SDS011;33947;46.804;134.252;2023-02-28T14:59:45;6.65;;;3.53;;
46845;SDS011;33947;46.804;134.252;2023-02-28T15:02:50;35.92;;;15.25;;
46845;SDS011;33947;46.804;134.252;2023-02-28T15:05:55;16.50;;;9.88;;
46845;SDS011;33947;46.804;134.252;2023-02-28T15:09:08;17.30;;;7.45;;
46845;SDS011;33947;46.804;134.252;2023-02-28T15:12:21;11.40;;;5.57;;
46845;SDS011;33947;46.804;134.252;2023-02-28T15:25:39;6.45;;;3.55;;
46845;SDS011;33947;46.804;134.252;2023-02-28T15:28:44;52.40;;;14.95;;
46845;SDS011;33947;46.804;134.252;2023-02-28T15:31:49;8.13;;;3.83;;
46845;SDS011;33947;46.804;134.252;2023-02-28T15:35:16;11.85;;;4.78;;
46845;SDS011;33947;46.804;134.252;2023-02-28T15:38:25;12.43;;;5.70;;
46845;SDS011;33947;46.804;134.252;2023-02-28T15:41:35;10.18;;;4.80;;
46845;SDS011;33947;46.804;134.252;2023-02-28T15:44:44;12.77;;;4.85;;
46845;SDS011;33947;46.804;134.252;2023-02-28T15:47:49;7.75;;;3.88;;
46845;SDS011;33947;46.804;134.252;2023-02-28T15:54:24;59.42;;;22.45;;
46845;SDS011;33947;46.804;134.252;2023-02-28T15:57:38;88.78;;;37.60;;
46845;SDS011;33947;46.804;134.252;2023-02-28T16:03:53;42.30;;;17.67;;
46845;SDS011;33947;46.804;134.252;2023-02-28T16:07:00;28.67;;;10.73;;
46845;SDS011;33947;46.804;134.252;2023-02-28T16:10:07;108.18;;;31.27;;
46845;SDS011;33947;46.804;134.252;2023-02-28T16:13:13;39.45;;;14.88;;
46845;SDS011;33947;46.804;134.252;2023-02-28T16:19:25;17.65;;;7.70;;
46845;SDS011;33947;46.804;134.252;2023-02-28T16:22:29;10.38;;;5.45;;
46845;SDS011;33947;46.804;134.252;2023-02-28T16:25:35;6.20;;;3.72;;
46845;SDS011;33947;46.804;134.252;2023-02-28T16:28:42;8.35;;;3.47;;
46845;SDS011;33947;46.804;134.252;2023-02-28T16:31:47;4.82;;;3.15;;
46845;SDS011;33947;46.804;134.252;2023-02-28T16:34:51;13.88;;;5.40;;
46845;SDS011;33947;46.804;134.252;2023-02-28T16:37:56;7.47;;;3.97;;
46845;SDS011;33947;46.804;134.252;2023-02-28T16:41:00;38.00;;;14.27;;
46845;SDS011;33947;46.804;134.252;2023-02-28T16:44:04;8.07;;;4.33;;
46845;SDS011;33947;46.804;134.252;2023-02-28T16:47:17;5.55;;;3.50;;
46845;SDS011;33947;46.804;134.252;2023-02-28T16:50:22;5.22;;;3.38;;
46845;SDS011;33947;46.804;134.252;2023-02-28T16:53:29;8.68;;;4.35;;
46845;SDS011;33947;46.804;134.252;2023-02-28T16:56:32;11.18;;;6.65;;
46845;SDS011;33947;46.804;134.252;2023-02-28T16:59:38;15.30;;;9.23;;
46845;SDS011;33947;46.804;134.252;2023-02-28T17:02:43;8.10;;;5.30;;
46845;SDS011;33947;46.804;134.252;2023-02-28T17:05:48;7.78;;;5.35;;
46845;SDS011;33947;46.804;134.252;2023-02-28T17:08:53;4.85;;;3.00;;
46845;SDS011;33947;46.804;134.252;2023-02-28T17:11:58;5.75;;;3.42;;
46845;SDS011;33947;46.804;134.252;2023-02-28T17:15:02;6.13;;;3.60;;
46845;SDS011;33947;46.804;134.252;2023-02-28T17:18:08;5.53;;;3.60;;
46845;SDS011;33947;46.804;134.252;2023-02-28T17:21:24;7.60;;;3.65;;
46845;SDS011;33947;46.804;134.252;2023-02-28T17:24:28;6.60;;;3.50;;
46845;SDS011;33947;46.804;134.252;2023-02-28T17:27:33;6.72;;;4.00;;
46845;SDS011;33947;46.804;134.252;2023-02-28T17:30:37;4.90;;;3.08;;
46845;SDS011;33947;46.804;134.252;2023-02-28T17:33:44;6.90;;;3.72;;
46845;SDS011;33947;46.804;134.252;2023-02-28T17:36:50;6.65;;;4.25;;
46845;SDS011;33947;46.804;134.252;2023-02-28T17:39:55;5.72;;;3.72;;
46845;SDS011;33947;46.804;134.252;2023-02-28T17:42:59;6.45;;;4.35;;
46845;SDS011;33947;46.804;134.252;2023-02-28T17:46:05;8.65;;;4.65;;
46845;SDS011;33947;46.804;134.252;2023-02-28T17:49:10;7.90;;;4.70;;
46845;SDS011;33947;46.804;134.252;2023-02-28T17:52:15;8.43;;;4.55;;
46845;SDS011;33947;46.804;134.252;2023-02-28T17:55:19;8.57;;;6.57;;
46845;SDS011;33947;46.804;134.252;2023-02-28T17:58:23;5.93;;;4.15;;
46845;SDS011;33947;46.804;134.252;2023-02-28T18:01:28;14.48;;;5.88;;
46845;SDS011;33947;46.804;134.252;2023-02-28T18:04:33;703.47;;;224.52;;
46845;SDS011;33947;46.804;134.252;2023-02-28T18:07:37;737.90;;;247.05;;
46845;SDS011;33947;46.804;134.252;2023-02-28T18:10:42;559.75;;;160.30;;
46845;SDS011;33947;46.804;134.252;2023-02-28T18:13:48;470.90;;;125.65;;
46845;SDS011;33947;46.804;134.252;2023-02-28T18:16:54;386.25;;;101.60;;
46845;SDS011;33947;46.804;134.252;2023-02-28T18:19:59;457.40;;;127.03;;
46845;SDS011;33947;46.804;134.252;2023-02-28T18:23:04;355.85;;;93.80;;
46845;SDS011;33947;46.804;134.252;2023-02-28T18:26:08;225.68;;;66.50;;
46845;SDS011;33947;46.804;134.252;2023-02-28T18:29:15;257.50;;;69.10;;
46845;SDS011;33947;46.804;134.252;2023-02-28T18:32:26;189.70;;;56.55;;
46845;SDS011;33947;46.804;134.252;2023-02-28T18:35:30;148.52;;;44.47;;
46845;SDS011;33947;46.804;134.252;2023-02-28T18:38:38;91.30;;;30.13;;
46845;SDS011;33947;46.804;134.252;2023-02-28T18:41:42;152.23;;;43.15;;
46845;SDS011;33947;46.804;134.252;2023-02-28T18:44:46;108.22;;;34.25;;
46845;SDS011;33947;46.804;134.252;2023-02-28T18:47:50;58.40;;;20.73;;
46845;SDS011;33947;46.804;134.252;2023-02-28T18:50:55;44.38;;;18.05;;
46845;SDS011;33947;46.804;134.252;2023-02-28T18:53:59;11.85;;;6.53;;
46845;SDS011;33947;46.804;134.252;2023-02-28T18:57:04;9.18;;;4.85;;
46845;SDS011;33947;46.804;134.252;2023-02-28T19:00:08;6.65;;;4.20;;
46845;SDS011;33947;46.804;134.252;2023-02-28T19:03:15;9.48;;;5.53;;
46845;SDS011;33947;46.804;134.252;2023-02-28T19:06:19;14.23;;;8.75;;
46845;SDS011;33947;46.804;134.252;2023-02-28T19:09:24;16.45;;;8.50;;
46845;SDS011;33947;46.804;134.252;2023-02-28T19:12:31;10.23;;;5.75;;
46845;SDS011;33947;46.804;134.252;2023-02-28T19:15:37;7.32;;;4.43;;
46845;SDS011;33947;46.804;134.252;2023-02-28T19:18:42;6.55;;;3.83;;
46845;SDS011;33947;46.804;134.252;2023-02-28T19:21:46;5.55;;;3.25;;
46845;SDS011;33947;46.804;134.252;2023-02-28T19:24:50;5.88;;;3.08;;
46845;SDS011;33947;46.804;134.252;2023-02-28T19:27:55;8.95;;;5.28;;
46845;SDS011;33947;46.804;134.252;2023-02-28T19:31:00;10.45;;;5.05;;
46845;SDS011;33947;46.804;134.252;2023-02-28T19:34:04;11.48;;;5.32;;
46845;SDS011;33947;46.804;134.252;2023-02-28T19:37:09;12.48;;;6.57;;
46845;SDS011;33947;46.804;134.252;2023-02-28T19:40:13;9.52;;;5.47;;
46845;SDS011;33947;46.804;134.252;2023-02-28T19:43:17;8.68;;;4.18;;
46845;SDS011;33947;46.804;134.252;2023-02-28T19:46:22;10.65;;;4.03;;
46845;SDS011;33947;46.804;134.252;2023-02-28T19:49:26;5.43;;;3.53;;
46845;SDS011;33947;46.804;134.252;2023-02-28T19:52:30;6.47;;;4.05;;
46845;SDS011;33947;46.804;134.252;2023-02-28T19:55:36;5.33;;;3.33;;
46845;SDS011;33947;46.804;134.252;2023-02-28T19:58:40;6.65;;;3.38;;
46845;SDS011;33947;46.804;134.252;2023-02-28T20:01:45;5.97;;;3.42;;
46845;SDS011;33947;46.804;134.252;2023-02-28T20:04:49;4.35;;;2.75;;
46845;SDS011;33947;46.804;134.252;2023-02-28T20:07:54;5.72;;;3.33;;
46845;SDS011;33947;46.804;134.252;2023-02-28T20:11:02;4.28;;;3.15;;
46845;SDS011;33947;46.804;134.252;2023-02-28T20:14:18;5.25;;;3.03;;